Time;durP1;ratioP1;P1;durP2;ratioP2;P2;SDS_P1;SDS_P2;PMS_P1;PMS_P2;Temp;Humidity;BMP_temperature;BMP_pressure;BME280_temperature;BME280_humidity;BME280_pressure;Samples;Min_cycle;Max_cycle;Signal;HPM_P1;HPM_P2
2022/09/03 00:02:01;;;;;;;4.18;3.13;;;17.70;94.70;;;;;;5066112;28;20602;-79
2022/09/03 00:04:39;;;;;;;3.70;3.05;;;17.70;94.60;;;;;;5069858;28;20242;-79
2022/09/03 00:07:17;;;;;;;3.40;3.10;;;17.80;94.50;;;;;;5054690;28;20594;-79
2022/09/03 00:09:48;;;;;;;3.83;3.47;;;17.50;94.40;;;;;;5068036;28;20208;-78
2022/09/03 00:12:23;;;;;;;3.50;2.97;;;17.80;94.60;;;;;;5070241;28;20181;-79
2022/09/03 00:15:04;;;;;;;3.17;2.80;;;17.30;94.30;;;;;;5067987;28;20572;-80
2022/09/03 00:17:53;;;;;;;2.80;2.60;;;17.80;94.70;;;;;;5064512;28;20213;-80
2022/09/03 00:20:27;;;;;;;3.40;2.72;;;17.80;94.60;;;;;;5060614;28;20197;-80
2022/09/03 00:22:55;;;;;;;2.65;2.45;;;18.10;94.80;;;;;;5065066;28;20262;-78
2022/09/03 00:25:27;;;;;;;2.75;2.35;;;18.10;94.80;;;;;;5068774;28;20226;-77
2022/09/03 00:27:57;;;;;;;3.10;2.80;;;18.20;95.00;;;;;;5066078;28;20276;-78
2022/09/03 00:30:23;;;;;;;3.20;2.90;;;17.50;94.80;;;;;;5067035;28;20197;-79
2022/09/03 00:32:51;;;;;;;3.00;2.70;;;18.00;95.10;;;;;;5067476;28;20699;-79
2022/09/03 00:35:25;;;;;;;3.22;2.92;;;17.80;95.00;;;;;;5069375;28;20181;-80
2022/09/03 00:37:52;;;;;;;3.10;2.90;;;18.30;95.30;;;;;;5062365;28;20217;-80
2022/09/03 00:40:43;;;;;;;2.97;2.78;;;18.20;95.30;;;;;;5062960;28;20191;-79
2022/09/03 00:43:50;;;;;;;3.50;3.20;;;18.20;95.20;;;;;;5057080;28;20180;-79
2022/09/03 00:46:27;;;;;;;2.80;2.60;;;18.00;95.00;;;;;;5062222;28;20188;-79
2022/09/03 00:49:23;;;;;;;3.33;2.92;;;17.90;95.20;;;;;;5065902;28;20229;-80
2022/09/03 00:52:26;;;;;;;3.15;2.85;;;18.00;95.30;;;;;;5065438;28;20188;-80
2022/09/03 00:55:05;;;;;;;4.43;2.75;;;17.90;96.10;;;;;;5062493;28;20251;-79
2022/09/03 00:57:52;;;;;;;3.10;2.90;;;17.80;95.90;;;;;;5063155;28;20200;-79
2022/09/03 01:00:19;;;;;;;6.78;3.00;;;17.80;95.80;;;;;;5063715;28;20547;-79
2022/09/03 01:03:36;;;;;;;5.38;2.65;;;18.20;96.10;;;;;;5068359;28;20185;-79
2022/09/03 01:06:21;;;;;;;3.75;2.90;;;17.90;95.70;;;;;;5047326;28;20193;-79
2022/09/03 01:09:10;;;;;;;3.00;2.80;;;18.00;95.50;;;;;;5067482;28;20208;-79
2022/09/03 01:11:58;;;;;;;2.92;2.60;;;18.00;95.60;;;;;;5071239;28;20177;-79
2022/09/03 01:14:46;;;;;;;2.67;2.13;;;18.00;95.60;;;;;;5071910;28;20235;-80
2022/09/03 01:17:19;;;;;;;3.55;3.25;;;18.10;95.40;;;;;;5065285;28;20211;-80
2022/09/03 01:19:55;;;;;;;6.95;3.05;;;18.10;95.20;;;;;;5065833;28;20196;-79
2022/09/03 01:22:43;;;;;;;3.25;2.95;;;18.10;95.60;;;;;;5072025;28;20700;-79
2022/09/03 01:25:21;;;;;;;3.75;2.63;;;18.20;95.60;;;;;;5070947;28;20181;-79
2022/09/03 01:28:07;;;;;;;2.90;2.70;;;18.30;95.50;;;;;;5069088;28;20260;-80
2022/09/03 01:30:40;;;;;;;2.83;2.55;;;18.30;95.20;;;;;;5070038;28;20192;-79
2022/09/03 01:33:34;;;;;;;2.70;2.50;;;18.40;95.40;;;;;;5070081;28;20212;-79
2022/09/03 01:36:31;;;;;;;3.75;2.85;;;18.30;95.20;;;;;;5069056;28;20314;-79
2022/09/03 01:39:05;;;;;;;2.72;2.53;;;18.20;95.40;;;;;;5070668;28;20228;-79
2022/09/03 01:44:59;;;;;;;3.10;2.90;;;18.30;95.30;;;;;;5067848;28;20196;-79
2022/09/03 01:47:32;;;;;;;2.80;2.60;;;18.30;95.30;;;;;;5066559;28;20176;-79
2022/09/03 01:50:25;;;;;;;2.72;2.53;;;18.70;95.30;;;;;;5067947;28;20201;-79
2022/09/03 01:53:24;;;;;;;5.97;2.65;;;18.60;95.70;;;;;;5069545;28;20209;-79
2022/09/03 01:55:59;;;;;;;2.45;2.20;;;18.20;95.60;;;;;;5066743;28;20177;-79
2022/09/03 01:59:01;;;;;;;2.70;2.50;;;17.90;95.50;;;;;;5069303;28;20823;-79
2022/09/03 02:01:40;;;;;;;2.33;2.13;;;18.20;96.10;;;;;;5066268;28;20215;-79
2022/09/03 02:04:32;;;;;;;2.58;2.38;;;18.50;95.60;;;;;;5061639;28;20227;-80
2022/09/03 02:07:00;;;;;;;2.42;2.33;;;18.30;95.30;;;;;;5060474;28;20551;-80
2022/09/03 02:09:26;;;;;;;4.53;2.70;;;18.10;95.20;;;;;;5065630;28;20209;-79
2022/09/03 02:12:01;;;;;;;2.95;2.65;;;18.90;95.80;;;;;;5069923;28;20193;-79
2022/09/03 02:14:28;;;;;;;3.70;2.10;;;18.30;95.50;;;;;;5071118;28;20200;-79
2022/09/03 02:16:56;;;;;;;2.50;2.30;;;18.60;95.80;;;;;;5069747;28;20177;-79
2022/09/03 02:19:23;;;;;;;3.15;2.50;;;18.20;95.40;;;;;;5067799;28;20205;-79
2022/09/03 02:21:52;;;;;;;2.60;2.40;;;18.40;95.40;;;;;;5068747;28;20180;-79
2022/09/03 02:24:18;;;;;;;2.63;2.42;;;18.40;95.40;;;;;;5066194;28;20326;-79
2022/09/03 02:26:44;;;;;;;2.70;2.47;;;18.40;95.40;;;;;;5070490;28;20683;-79
2022/09/03 02:29:10;;;;;;;2.40;2.20;;;18.40;95.50;;;;;;5060079;28;20205;-79
2022/09/03 02:31:35;;;;;;;3.20;2.30;;;18.00;95.30;;;;;;5065790;28;20206;-80
2022/09/03 02:34:01;;;;;;;3.00;2.40;;;18.70;96.20;;;;;;5068990;28;20540;-80
2022/09/03 02:36:31;;;;;;;2.40;2.20;;;18.70;96.10;;;;;;5070545;28;20207;-79
2022/09/03 02:38:57;;;;;;;2.17;2.08;;;18.20;95.80;;;;;;5067550;28;20458;-79
2022/09/03 02:41:26;;;;;;;2.53;2.33;;;18.50;96.00;;;;;;5069689;28;20192;-79
2022/09/03 02:44:02;;;;;;;2.40;2.20;;;18.50;96.60;;;;;;5070317;28;20442;-78
2022/09/03 02:46:58;;;;;;;3.33;3.00;;;18.30;96.50;;;;;;5067908;28;20543;-77
2022/09/03 02:49:23;;;;;;;3.25;2.70;;;18.20;96.50;;;;;;5051602;28;20586;-78
2022/09/03 02:51:49;;;;;;;2.60;2.47;;;17.60;96.90;;;;;;5062228;28;20795;-79
2022/09/03 02:54:15;;;;;;;2.50;2.30;;;17.50;96.90;;;;;;5063873;28;20212;-79
2022/09/03 02:56:40;;;;;;;2.57;2.37;;;18.00;97.10;;;;;;5064805;28;20184;-80
2022/09/03 02:59:07;;;;;;;2.23;2.03;;;18.20;97.00;;;;;;5069499;28;20209;-79
2022/09/03 03:01:33;;;;;;;2.00;1.90;;;18.10;96.90;;;;;;5060786;28;20190;-79
2022/09/03 03:03:59;;;;;;;2.95;2.75;;;17.30;96.30;;;;;;5069643;28;20177;-79
2022/09/03 03:06:25;;;;;;;4.13;2.60;;;17.80;97.00;;;;;;5069715;28;20194;-78
2022/09/03 03:08:55;;;;;;;3.27;3.00;;;17.80;96.70;;;;;;5069427;28;20236;-79
2022/09/03 03:11:25;;;;;;;3.95;2.63;;;18.20;97.20;;;;;;5067924;28;20446;-78
2022/09/03 03:13:50;;;;;;;3.28;2.97;;;18.10;97.30;;;;;;5069120;28;20657;-79
2022/09/03 03:16:16;;;;;;;2.77;2.57;;;18.20;97.40;;;;;;5068472;28;20271;-79
2022/09/03 03:18:44;;;;;;;2.60;2.40;;;18.10;97.30;;;;;;5069774;28;20701;-80
2022/09/03 03:21:14;;;;;;;3.05;2.67;;;18.00;97.40;;;;;;5067665;28;20177;-79
2022/09/03 03:23:39;;;;;;;5.10;3.47;;;17.70;97.40;;;;;;5068864;28;20538;-79
2022/09/03 03:26:08;;;;;;;2.70;2.50;;;17.80;97.30;;;;;;5069180;28;20188;-81
2022/09/03 03:28:35;;;;;;;4.05;2.60;;;17.70;97.10;;;;;;5068255;28;20216;-79
2022/09/03 03:31:19;;;;;;;2.83;2.55;;;17.90;97.50;;;;;;5068504;28;20192;-79
2022/09/03 03:33:59;;;;;;;3.05;2.45;;;17.60;97.60;;;;;;5062615;28;20201;-78
2022/09/03 03:36:28;;;;;;;3.10;2.90;;;17.60;97.30;;;;;;5062191;28;20185;-80
2022/09/03 03:38:55;;;;;;;3.92;2.70;;;17.80;97.60;;;;;;5064744;28;20284;-80
2022/09/03 03:41:23;;;;;;;4.28;2.60;;;17.80;97.90;;;;;;5063859;28;20177;-79
2022/09/03 03:43:56;;;;;;;2.92;2.72;;;17.20;98.20;;;;;;5061643;28;20964;-79
2022/09/03 03:46:23;;;;;;;2.55;2.35;;;16.90;98.70;;;;;;5061731;28;20184;-80
2022/09/03 03:48:51;;;;;;;2.60;2.40;;;17.40;99.20;;;;;;5068585;28;20213;-80
2022/09/03 03:51:17;;;;;;;3.75;2.50;;;17.40;99.50;;;;;;5067976;28;20326;-79
2022/09/03 03:53:42;;;;;;;2.92;2.72;;;17.50;99.80;;;;;;5055871;28;20234;-80
2022/09/03 03:56:11;;;;;;;2.63;2.43;;;17.40;99.40;;;;;;5067170;28;20217;-78
2022/09/03 03:58:41;;;;;;;2.40;2.30;;;17.60;99.00;;;;;;5067834;28;20249;-80
2022/09/03 04:01:10;;;;;;;3.15;2.85;;;17.60;98.80;;;;;;5066195;28;20181;-80
2022/09/03 04:03:36;;;;;;;2.35;2.15;;;17.60;98.70;;;;;;5061960;28;20697;-80
2022/09/03 04:06:03;;;;;;;2.70;2.50;;;17.80;98.80;;;;;;5065231;28;20204;-77
2022/09/03 04:08:32;;;;;;;2.95;2.65;;;17.20;98.70;;;;;;5062359;28;20205;-80
2022/09/03 04:11:00;;;;;;;4.18;2.72;;;17.40;99.00;;;;;;5067778;28;20204;-79
2022/09/03 04:13:33;;;;;;;4.30;2.40;;;17.50;98.80;;;;;;5065976;28;20686;-80
2022/09/03 04:16:11;;;;;;;6.57;3.58;;;16.70;98.80;;;;;;5067956;28;20188;-80
2022/09/03 04:18:38;;;;;;;2.78;2.58;;;17.20;99.20;;;;;;5068124;28;20219;-81
2022/09/03 04:21:07;;;;;;;3.05;2.70;;;16.90;98.70;;;;;;5067590;28;20202;-77
2022/09/03 04:23:39;;;;;;;2.25;2.10;;;17.30;99.10;;;;;;5064709;28;20237;-79
2022/09/03 04:26:06;;;;;;;5.63;2.55;;;17.10;99.20;;;;;;5056039;28;20184;-80
2022/09/03 04:28:32;;;;;;;2.95;2.58;;;17.40;99.50;;;;;;5068988;28;20223;-79
2022/09/03 04:31:03;;;;;;;2.85;2.65;;;17.40;99.80;;;;;;5066092;28;20261;-79
2022/09/03 04:33:30;;;;;;;3.10;2.80;;;17.40;99.80;;;;;;5068045;28;20205;-79
2022/09/03 04:36:08;;;;;;;2.90;2.60;;;17.20;99.90;;;;;;5069236;28;20195;-79
2022/09/03 04:38:36;;;;;;;2.60;2.40;;;17.20;99.90;;;;;;5063470;28;20225;-80
2022/09/03 04:41:02;;;;;;;2.95;2.75;;;17.20;99.90;;;;;;5077325;28;20177;-79
2022/09/03 04:43:28;;;;;;;5.10;2.70;;;16.90;99.90;;;;;;5057544;28;20186;-80
2022/09/03 04:45:59;;;;;;;3.17;2.50;;;17.00;99.90;;;;;;5067069;28;20189;-78
2022/09/03 04:48:25;;;;;;;6.30;3.40;;;17.00;99.90;;;;;;5065122;28;20205;-77
2022/09/03 04:50:51;;;;;;;3.10;2.90;;;17.20;99.90;;;;;;5068064;28;20271;-78
2022/09/03 04:53:17;;;;;;;3.60;2.80;;;16.70;99.90;;;;;;5067838;28;20318;-78
2022/09/03 04:55:42;;;;;;;3.30;3.03;;;17.00;99.90;;;;;;5071096;28;20451;-80
2022/09/03 04:58:08;;;;;;;3.00;2.80;;;17.10;99.90;;;;;;5069156;28;20177;-78
2022/09/03 05:00:36;;;;;;;3.47;2.70;;;16.80;99.90;;;;;;5067036;28;20637;-79
2022/09/03 05:03:03;;;;;;;3.00;2.80;;;17.10;99.90;;;;;;5072206;28;21277;-80
2022/09/03 05:05:32;;;;;;;2.90;2.70;;;16.80;99.90;;;;;;5073179;28;20535;-78
2022/09/03 05:08:02;;;;;;;3.45;2.90;;;16.90;99.90;;;;;;5067844;28;20177;-78
2022/09/03 05:10:29;;;;;;;3.50;2.65;;;17.20;99.90;;;;;;5072550;28;20217;-78
2022/09/03 05:13:03;;;;;;;3.25;2.85;;;17.70;99.90;;;;;;5065659;28;20584;-78
2022/09/03 05:15:32;;;;;;;3.15;2.85;;;17.30;99.90;;;;;;5062521;28;20717;-80
2022/09/03 05:18:00;;;;;;;3.17;2.97;;;17.40;99.90;;;;;;5067996;28;20649;-78
2022/09/03 05:20:28;;;;;;;3.05;2.85;;;17.40;99.90;;;;;;5072179;28;20220;-80
2022/09/03 05:22:54;;;;;;;2.70;2.50;;;17.00;99.90;;;;;;5070780;28;20212;-79
2022/09/03 05:25:19;;;;;;;3.70;3.40;;;17.60;99.90;;;;;;5066076;28;20608;-79
2022/09/03 05:27:45;;;;;;;6.30;3.17;;;17.50;99.90;;;;;;5070402;28;20549;-79
2022/09/03 05:30:12;;;;;;;3.30;3.00;;;17.60;99.90;;;;;;5069385;28;20474;-79
2022/09/03 05:32:37;;;;;;;3.03;2.83;;;17.40;99.90;;;;;;5064483;28;20439;-79
2022/09/03 05:35:03;;;;;;;3.67;3.37;;;17.90;99.90;;;;;;5067766;28;20187;-79
2022/09/03 05:37:29;;;;;;;4.00;3.47;;;17.40;99.90;;;;;;5069842;28;20225;-78
2022/09/03 05:39:54;;;;;;;3.30;3.00;;;18.10;99.90;;;;;;5068393;28;20470;-79
2022/09/03 05:42:20;;;;;;;3.20;3.00;;;18.10;99.90;;;;;;5071267;28;20177;-79
2022/09/03 05:44:48;;;;;;;3.47;3.17;;;17.90;99.80;;;;;;5067396;28;20741;-80
2022/09/03 05:47:14;;;;;;;3.10;2.88;;;18.00;99.80;;;;;;5069601;28;20189;-79
2022/09/03 05:49:40;;;;;;;3.53;3.25;;;18.10;99.90;;;;;;5066801;28;20661;-80
2022/09/03 05:52:05;;;;;;;3.50;3.17;;;18.40;99.90;;;;;;5068816;28;20268;-79
2022/09/03 05:54:31;;;;;;;3.27;2.97;;;18.30;99.60;;;;;;5066275;28;20201;-80
2022/09/03 05:56:56;;;;;;;5.40;3.67;;;18.70;99.60;;;;;;5068340;28;20180;-78
2022/09/03 05:59:22;;;;;;;3.67;3.00;;;18.50;99.40;;;;;;5068526;28;20227;-81
2022/09/03 06:01:48;;;;;;;3.43;3.13;;;18.50;99.40;;;;;;5069497;28;20243;-79
2022/09/03 06:04:15;;;;;;;3.92;3.60;;;18.30;99.40;;;;;;5059622;28;20182;-80
2022/09/03 06:06:45;;;;;;;3.42;3.05;;;18.60;99.20;;;;;;5061923;28;20242;-84
2022/09/03 06:09:14;;;;;;;3.50;3.20;;;18.70;99.30;;;;;;5069665;28;20204;-84
2022/09/03 06:11:41;;;;;;;6.40;3.63;;;18.50;99.60;;;;;;5069503;28;20208;-85
2022/09/03 06:14:10;;;;;;;2.97;2.78;;;18.90;99.40;;;;;;5069770;28;20223;-84
2022/09/03 06:16:41;;;;;;;3.88;3.60;;;18.50;99.20;;;;;;5068570;28;20331;-83
2022/09/03 06:19:09;;;;;;;3.60;3.30;;;18.70;99.40;;;;;;5066388;28;20231;-83
2022/09/03 06:21:41;;;;;;;3.97;3.40;;;19.00;99.50;;;;;;5069597;28;20196;-83
2022/09/03 06:24:12;;;;;;;3.88;3.47;;;19.20;99.60;;;;;;5063641;28;20177;-84
2022/09/03 06:26:38;;;;;;;4.43;3.20;;;18.80;99.30;;;;;;5063199;28;20223;-81
2022/09/03 06:29:04;;;;;;;3.90;3.60;;;18.70;99.10;;;;;;5069639;28;20200;-80
2022/09/03 06:31:30;;;;;;;3.63;3.33;;;18.70;99.20;;;;;;5066258;28;20210;-81
2022/09/03 06:33:55;;;;;;;3.60;3.30;;;19.00;99.50;;;;;;5065703;28;20209;-82
2022/09/03 06:36:23;;;;;;;3.30;2.97;;;18.70;99.40;;;;;;5064771;28;20204;-81
2022/09/03 06:38:52;;;;;;;4.90;3.45;;;19.40;99.30;;;;;;5068156;28;20204;-81
2022/09/03 06:41:25;;;;;;;3.30;3.00;;;19.00;98.80;;;;;;5066325;28;20186;-82
2022/09/03 06:44:00;;;;;;;4.25;3.42;;;19.80;99.10;;;;;;5062122;28;20185;-80
2022/09/03 06:46:25;;;;;;;3.97;3.38;;;19.30;98.70;;;;;;5066885;28;20558;-83
2022/09/03 06:48:52;;;;;;;4.30;3.87;;;19.20;99.60;;;;;;5069430;28;20226;-85
2022/09/03 06:51:23;;;;;;;4.05;3.75;;;19.20;99.40;;;;;;5068866;28;20220;-83
2022/09/03 06:53:50;;;;;;;4.07;3.78;;;19.40;99.50;;;;;;5066930;28;20279;-83
2022/09/03 06:56:25;;;;;;;4.10;3.70;;;19.60;99.50;;;;;;5063946;28;20234;-83
2022/09/03 06:58:52;;;;;;;6.60;4.00;;;19.50;99.40;;;;;;5067749;28;20200;-83
2022/09/03 07:01:20;;;;;;;3.85;3.55;;;19.40;99.50;;;;;;5064505;28;20231;-83
2022/09/03 07:03:51;;;;;;;3.88;3.58;;;19.70;99.50;;;;;;5066558;28;20180;-84
2022/09/03 07:06:18;;;;;;;3.90;3.55;;;19.50;98.80;;;;;;5061782;28;20261;-82
2022/09/03 07:08:45;;;;;;;4.47;4.07;;;19.90;98.60;;;;;;5061001;28;20600;-82
2022/09/03 07:11:13;;;;;;;3.50;3.20;;;19.80;98.40;;;;;;5066076;28;20181;-82
2022/09/03 07:13:44;;;;;;;3.90;3.10;;;19.90;98.30;;;;;;5079035;28;20223;-84
2022/09/03 07:16:12;;;;;;;4.93;3.65;;;20.00;98.20;;;;;;5062994;28;20236;-84
2022/09/03 07:18:39;;;;;;;5.15;4.47;;;20.20;98.40;;;;;;5064543;28;20224;-85
2022/09/03 07:21:16;;;;;;;4.05;3.75;;;20.50;98.40;;;;;;5070173;28;20180;-89
2022/09/03 07:23:43;;;;;;;6.07;5.47;;;20.10;98.30;;;;;;5066524;28;20537;-85
2022/09/03 07:26:12;;;;;;;7.38;4.63;;;20.00;98.30;;;;;;5065887;28;20661;-83
2022/09/03 07:28:39;;;;;;;5.18;4.82;;;20.00;98.80;;;;;;5066220;28;20206;-83
2022/09/03 07:31:18;;;;;;;4.78;4.43;;;20.40;98.90;;;;;;5068223;28;20227;-82
2022/09/03 07:33:45;;;;;;;5.45;4.80;;;20.50;99.20;;;;;;5061692;28;20307;-82
2022/09/03 07:36:15;;;;;;;5.97;4.47;;;20.40;98.90;;;;;;5062858;28;22171;-83
2022/09/03 07:38:43;;;;;;;4.65;4.25;;;20.10;98.70;;;;;;5063588;28;20208;-83
2022/09/03 07:41:11;;;;;;;7.38;4.10;;;20.30;98.50;;;;;;5068245;28;20223;-83
2022/09/03 07:43:39;;;;;;;4.63;4.22;;;20.50;98.40;;;;;;5063417;28;20296;-82
2022/09/03 07:46:06;;;;;;;4.20;3.90;;;21.60;98.70;;;;;;5066614;28;20181;-83
2022/09/03 07:48:32;;;;;;;8.80;4.80;;;21.30;97.90;;;;;;5066785;28;20216;-84
2022/09/03 07:51:00;;;;;;;3.90;3.60;;;22.10;96.40;;;;;;5068536;28;20923;-84
2022/09/03 07:53:26;;;;;;;5.40;4.90;;;22.60;95.70;;;;;;5067824;28;20506;-83
2022/09/03 07:55:51;;;;;;;4.67;4.37;;;22.20;95.60;;;;;;5068726;28;20450;-80
2022/09/03 07:58:17;;;;;;;4.20;3.90;;;22.20;95.20;;;;;;5063388;28;20998;-84
2022/09/03 08:00:42;;;;;;;5.77;4.67;;;22.20;95.80;;;;;;5061121;28;20185;-84
2022/09/03 08:03:09;;;;;;;4.27;3.93;;;23.60;96.70;;;;;;5065810;28;20541;-83
2022/09/03 08:05:35;;;;;;;3.90;3.60;;;22.30;95.90;;;;;;5067764;28;20188;-84
2022/09/03 08:08:05;;;;;;;5.22;4.72;;;22.20;96.40;;;;;;5067115;28;20549;-81
2022/09/03 08:10:35;;;;;;;5.30;4.30;;;21.80;96.30;;;;;;5063197;28;20567;-81
2022/09/03 08:13:04;;;;;;;4.20;3.90;;;22.20;96.90;;;;;;5069049;28;20446;-84
2022/09/03 08:15:30;;;;;;;4.70;4.30;;;22.60;96.70;;;;;;5069206;28;20509;-84
2022/09/03 08:17:55;;;;;;;4.40;3.97;;;22.10;96.40;;;;;;5066236;28;20479;-84
2022/09/03 08:20:21;;;;;;;5.73;5.00;;;22.40;96.10;;;;;;5062489;28;20446;-84
2022/09/03 08:22:47;;;;;;;5.20;4.70;;;23.10;95.40;;;;;;5068204;28;20185;-83
2022/09/03 08:25:13;;;;;;;12.10;11.10;;;23.90;93.90;;;;;;5070000;28;20699;-84
2022/09/03 08:27:38;;;;;;;5.70;4.50;;;24.80;92.80;;;;;;5069942;28;20438;-82
2022/09/03 08:30:08;;;;;;;4.63;4.23;;;26.00;90.40;;;;;;5070246;28;20292;-81
2022/09/03 08:32:43;;;;;;;3.97;3.67;;;26.40;87.90;;;;;;5066744;28;20226;-82
2022/09/03 08:35:08;;;;;;;4.00;3.70;;;27.90;82.60;;;;;;5070715;28;20444;-81
2022/09/03 08:37:34;;;;;;;7.13;6.03;;;29.10;78.30;;;;;;5070099;28;20446;-82
2022/09/03 08:40:02;;;;;;;6.07;4.50;;;30.20;75.70;;;;;;5068873;28;20294;-82
2022/09/03 08:42:40;;;;;;;4.40;3.67;;;28.60;72.70;;;;;;5070359;28;20643;-82
2022/09/03 08:45:11;;;;;;;4.70;4.30;;;28.40;76.20;;;;;;5070518;28;20490;-82
2022/09/03 08:47:47;;;;;;;3.80;3.53;;;29.60;72.10;;;;;;5069980;28;20441;-82
2022/09/03 08:50:34;;;;;;;5.07;4.50;;;30.00;70.00;;;;;;5069839;28;20459;-82
2022/09/03 08:53:12;;;;;;;4.10;3.80;;;30.70;67.60;;;;;;5072614;28;20964;-82
2022/09/03 08:55:57;;;;;;;3.40;3.00;;;31.40;64.20;;;;;;5067671;28;20481;-82
2022/09/03 08:58:26;;;;;;;9.33;8.57;;;31.10;64.10;;;;;;5063213;28;20456;-82
2022/09/03 09:01:05;;;;;;;5.10;4.70;;;30.30;66.40;;;;;;5069722;28;20594;-82
2022/09/03 09:04:08;;;;;;;4.27;3.97;;;29.50;67.40;;;;;;5069642;28;20498;-81
2022/09/03 09:06:45;;;;;;;8.07;4.47;;;28.50;69.70;;;;;;5069003;28;20489;-81
2022/09/03 09:09:41;;;;;;;4.30;3.87;;;27.70;72.90;;;;;;5071324;28;20543;-81
2022/09/03 09:12:21;;;;;;;4.37;3.97;;;27.40;74.60;;;;;;5068962;28;20618;-80
2022/09/03 09:15:12;;;;;;;4.03;3.73;;;26.90;76.00;;;;;;5070824;28;20510;-81
2022/09/03 09:17:53;;;;;;;3.33;3.03;;;26.30;76.40;;;;;;5065550;28;20524;-82
2022/09/03 09:20:53;;;;;;;4.60;4.30;;;25.70;80.00;;;;;;5061330;28;20434;-82
2022/09/03 09:23:33;;;;;;;4.30;3.67;;;25.60;81.90;;;;;;5068025;28;20441;-81
2022/09/03 09:26:05;;;;;;;4.90;3.50;;;25.20;82.90;;;;;;5070306;28;20529;-82
2022/09/03 09:28:36;;;;;;;3.97;3.60;;;25.60;83.50;;;;;;5066805;28;20483;-82
2022/09/03 09:31:04;;;;;;;5.07;4.70;;;24.80;83.80;;;;;;5067683;28;20483;-81
2022/09/03 09:33:32;;;;;;;5.53;4.70;;;24.60;86.00;;;;;;5065996;28;20467;-82
2022/09/03 09:36:01;;;;;;;4.27;3.97;;;24.40;86.90;;;;;;5070612;28;20536;-82
2022/09/03 09:38:35;;;;;;;3.83;3.50;;;24.50;86.90;;;;;;5069448;28;20931;-81
2022/09/03 09:41:14;;;;;;;5.77;4.23;;;24.60;87.10;;;;;;5070909;28;20533;-82
2022/09/03 09:43:40;;;;;;;4.23;3.93;;;25.00;85.50;;;;;;5059137;28;20449;-82
2022/09/03 09:46:20;;;;;;;4.80;4.50;;;25.60;83.20;;;;;;5069571;28;20950;-82
2022/09/03 09:48:55;;;;;;;5.07;4.67;;;25.90;82.50;;;;;;5066539;28;20977;-81
2022/09/03 09:51:29;;;;;;;4.93;4.53;;;25.70;81.90;;;;;;5067503;28;20447;-81
2022/09/03 09:54:11;;;;;;;5.77;4.43;;;25.40;83.30;;;;;;5066351;28;20457;-81
2022/09/03 09:56:36;;;;;;;4.13;3.83;;;26.00;83.70;;;;;;5062050;28;20442;-82
2022/09/03 09:59:05;;;;;;;4.83;4.43;;;25.30;83.80;;;;;;5069698;28;20860;-85
2022/09/03 10:01:31;;;;;;;6.80;4.50;;;25.30;83.00;;;;;;5059232;28;20209;-84
2022/09/03 10:03:59;;;;;;;4.77;4.23;;;25.00;83.50;;;;;;5065379;28;20469;-83
2022/09/03 10:09:20;;;;;;;4.70;4.30;;;25.30;83.20;;;;;;5071028;28;20472;-85
2022/09/03 10:12:13;;;;;;;4.73;4.33;;;25.20;83.00;;;;;;5068077;28;20454;-86
2022/09/03 10:15:02;;;;;;;4.63;4.33;;;25.20;83.90;;;;;;5063796;28;20555;-84
2022/09/03 10:17:46;;;;;;;5.07;4.63;;;25.40;83.00;;;;;;5066820;28;20473;-83
2022/09/03 10:20:26;;;;;;;4.70;4.40;;;25.90;82.50;;;;;;5066792;28;20471;-82
2022/09/03 10:23:04;;;;;;;5.73;5.33;;;25.60;82.00;;;;;;5066945;28;20521;-83
2022/09/03 10:25:49;;;;;;;5.53;5.03;;;25.40;82.10;;;;;;5068363;28;20441;-84
2022/09/03 10:28:15;;;;;;;4.80;4.40;;;25.20;83.00;;;;;;5063538;28;20457;-82
2022/09/03 10:31:14;;;;;;;4.23;3.93;;;25.20;82.90;;;;;;5067869;28;20462;-84
2022/09/03 10:33:43;;;;;;;4.80;4.40;;;25.50;82.00;;;;;;5067913;28;20683;-84
2022/09/03 10:36:22;;;;;;;7.00;4.90;;;26.10;81.70;;;;;;5065368;28;20445;-82
2022/09/03 10:39:04;;;;;;;4.70;4.30;;;25.50;82.10;;;;;;5066212;28;20539;-83
2022/09/03 10:41:58;;;;;;;5.93;5.37;;;25.70;81.10;;;;;;5065056;28;20422;-84
2022/09/03 10:44:38;;;;;;;5.73;5.23;;;25.60;80.20;;;;;;5063136;28;20453;-82
2022/09/03 10:47:28;;;;;;;5.47;5.07;;;25.40;81.40;;;;;;5080890;28;20442;-82
2022/09/03 10:50:09;;;;;;;5.30;4.90;;;25.50;81.00;;;;;;5066771;28;20463;-84
2022/09/03 10:52:55;;;;;;;8.83;4.90;;;24.70;82.90;;;;;;5058479;28;20532;-83
2022/09/03 10:55:48;;;;;;;5.83;5.30;;;25.00;82.50;;;;;;5060755;28;20491;-83
2022/09/03 10:58:39;;;;;;;6.00;5.50;;;25.10;82.80;;;;;;5062807;28;20459;-83
2022/09/03 11:01:26;;;;;;;5.30;4.80;;;25.20;81.70;;;;;;5057093;28;20471;-83
2022/09/03 11:04:18;;;;;;;5.20;4.80;;;25.50;81.80;;;;;;5066019;28;20512;-83
2022/09/03 11:06:55;;;;;;;7.37;6.77;;;25.30;81.50;;;;;;5068035;28;20481;-84
2022/09/03 11:09:23;;;;;;;8.03;7.37;;;25.40;81.70;;;;;;5061875;28;20519;-83
2022/09/03 11:12:10;;;;;;;5.47;4.97;;;25.10;82.30;;;;;;5064252;28;20461;-82
2022/09/03 11:14:45;;;;;;;5.10;4.70;;;25.10;82.00;;;;;;5081558;28;20470;-82
2022/09/03 11:17:21;;;;;;;4.80;4.43;;;25.40;82.80;;;;;;5063844;28;20445;-83
2022/09/03 11:20:02;;;;;;;5.40;5.00;;;25.30;82.30;;;;;;5065474;28;20499;-84
2022/09/03 11:22:29;;;;;;;4.83;4.53;;;25.10;82.60;;;;;;5062320;28;20875;-77
2022/09/03 11:24:58;;;;;;;5.43;4.93;;;25.00;83.10;;;;;;5063999;28;20509;-81
2022/09/03 11:27:53;;;;;;;5.37;4.87;;;24.90;83.60;;;;;;5061150;28;21040;-80
2022/09/03 11:30:51;;;;;;;5.07;4.57;;;25.60;84.50;;;;;;5075398;28;20935;-79
2022/09/03 11:33:20;;;;;;;4.47;4.07;;;24.90;83.20;;;;;;5040870;28;20475;-80
2022/09/03 11:35:54;;;;;;;5.03;4.23;;;24.90;83.60;;;;;;5066461;28;20755;-80
2022/09/03 11:38:26;;;;;;;4.80;4.43;;;25.10;83.90;;;;;;5069216;28;20465;-80
2022/09/03 11:41:02;;;;;;;4.33;4.03;;;24.80;84.30;;;;;;5065021;28;20942;-81
2022/09/03 11:43:32;;;;;;;4.87;4.20;;;24.70;83.80;;;;;;5064148;28;20456;-81
2022/09/03 11:46:10;;;;;;;4.60;4.30;;;24.40;84.60;;;;;;5063816;28;20447;-81
2022/09/03 11:48:42;;;;;;;4.60;4.20;;;24.50;85.10;;;;;;5060195;28;20495;-79
2022/09/03 11:51:54;;;;;;;5.27;4.87;;;24.50;85.10;;;;;;5061589;28;20464;-81
2022/09/03 11:54:22;;;;;;;5.70;5.20;;;24.40;85.10;;;;;;5004416;28;20480;-79
2022/09/03 11:56:49;;;;;;;4.67;4.33;;;24.20;86.20;;;;;;5058160;28;20458;-79
2022/09/03 11:59:25;;;;;;;4.90;4.60;;;24.40;87.00;;;;;;5064778;28;20501;-81
2022/09/03 12:01:59;;;;;;;4.90;4.40;;;23.80;87.50;;;;;;5063044;28;20949;-81
2022/09/03 12:04:43;;;;;;;4.70;4.30;;;23.60;88.50;;;;;;5066283;28;20438;-78
2022/09/03 12:07:27;;;;;;;4.43;4.13;;;23.60;88.90;;;;;;5062065;28;20442;-81
2022/09/03 12:10:24;;;;;;;4.23;3.93;;;23.50;89.50;;;;;;5063807;28;20463;-79
2022/09/03 12:13:13;;;;;;;9.17;4.70;;;23.40;90.20;;;;;;5060709;28;20435;-81
2022/09/03 12:16:03;;;;;;;7.10;4.37;;;23.30;90.90;;;;;;5063516;28;20499;-81
2022/09/03 12:18:31;;;;;;;4.90;4.50;;;23.20;91.80;;;;;;5060203;28;20487;-79
2022/09/03 12:20:58;;;;;;;5.33;4.90;;;23.10;92.50;;;;;;5064145;28;20438;-79
2022/09/03 12:23:30;;;;;;;4.87;4.57;;;23.00;93.10;;;;;;5066702;28;20600;-80
2022/09/03 12:26:07;;;;;;;5.07;4.70;;;22.90;93.90;;;;;;5067009;28;20450;-79
2022/09/03 12:28:37;;;;;;;6.00;5.50;;;22.90;94.40;;;;;;5066071;28;20489;-80
2022/09/03 12:31:30;;;;;;;4.90;4.40;;;22.80;95.20;;;;;;5061534;28;20442;-80
2022/09/03 12:34:06;;;;;;;3.90;3.60;;;22.50;97.20;;;;;;5063564;28;21068;-80
2022/09/03 12:36:50;;;;;;;3.40;3.10;;;22.90;99.30;;;;;;5059196;28;20533;-80
2022/09/03 12:39:22;;;;;;;3.53;3.15;;;21.90;99.90;;;;;;5060169;28;20463;-80
2022/09/03 12:42:06;;;;;;;3.77;3.40;;;21.60;99.90;;;;;;5067983;28;20181;-80
2022/09/03 12:44:35;;;;;;;3.95;3.58;;;21.40;99.90;;;;;;5064632;28;20984;-80
2022/09/03 12:47:03;;;;;;;4.03;2.90;;;21.10;99.90;;;;;;5061973;28;20264;-80
2022/09/03 12:49:50;;;;;;;3.10;2.80;;;20.90;99.90;;;;;;5068079;28;20204;-80
2022/09/03 12:52:42;;;;;;;3.30;2.80;;;21.10;99.90;;;;;;5063606;28;20263;-80
2022/09/03 12:55:35;;;;;;;3.10;2.65;;;20.50;99.90;;;;;;5060425;28;20272;-80
2022/09/03 12:58:25;;;;;;;3.60;2.38;;;20.30;99.90;;;;;;5059387;28;20643;-80
2022/09/03 13:01:11;;;;;;;4.53;3.15;;;20.00;99.90;;;;;;5068607;28;20208;-80
2022/09/03 13:03:46;;;;;;;5.65;3.38;;;19.80;99.90;;;;;;5067084;28;20230;-79
2022/09/03 13:06:16;;;;;;;3.80;3.17;;;19.60;99.90;;;;;;5068907;28;20191;-79
2022/09/03 13:09:14;;;;;;;3.33;3.00;;;19.90;99.90;;;;;;5056267;28;20247;-79
2022/09/03 13:11:42;;;;;;;3.42;3.13;;;19.50;99.90;;;;;;5063681;28;20253;-81
2022/09/03 13:14:11;;;;;;;3.30;2.92;;;19.70;99.90;;;;;;5070118;28;20268;-80
2022/09/03 13:16:56;;;;;;;3.05;2.67;;;19.50;99.90;;;;;;5071027;28;20180;-81
2022/09/03 13:19:47;;;;;;;3.10;2.80;;;20.00;99.90;;;;;;5069277;28;20204;-78
2022/09/03 13:22:39;;;;;;;6.47;2.72;;;19.60;99.90;;;;;;5065893;28;20210;-80
2022/09/03 13:25:26;;;;;;;3.17;2.50;;;19.70;99.90;;;;;;5058057;28;20267;-78
2022/09/03 13:28:10;;;;;;;3.47;3.13;;;19.40;99.90;;;;;;5067286;28;20177;-79
2022/09/03 13:30:40;;;;;;;3.38;3.08;;;19.60;99.90;;;;;;5064490;28;20200;-78